Latest Weather Observations for Carnarvon

IDW60801

Issued at 3:03 pm WST Saturday 30 July 2016 (issued every 30 minutes, with the page automatically refreshed every 10 minutes)

About weather observations | Map of weather stations | Latest weather observations for WA | Other Formats
Station Details ID: 006011 Name: CARNARVON AIRPORT Lat: -24.89 Lon: 113.67 Height: 4.0 m
Data from the previous 72 hours. | See also: Recent months at Carnarvon
Date/Time
WST
Temp
°C
App
Temp
°C
Dew
Point
°C
Rel
Hum
%
Delta-T
°C
Wind Press
QNH
hPa
Press
MSL
hPa
Rain since
9am
mm
Dir  Spd
km/h
Gust
km/h
Spd
kts
Gust
kts
30/03:00pm 23.4 21.9 15.4 60 4.8 SSW 17 22 9 12 1016.7 1016.7 0.0
30/02:30pm 24.0 21.9 18.1 69 3.7 SSW 26 33 14 18 1017.0 - 0.0
30/02:00pm 23.3 22.0 17.3 69 3.7 SSW 20 26 11 14 1017.0 - 0.0
30/01:30pm 22.9 21.2 18.1 74 3.0 SSW 24 28 13 15 1017.3 - 0.0
30/01:00pm 23.0 21.4 17.5 71 3.4 SSW 22 28 12 15 1017.5 - 0.0
30/12:30pm 23.5 22.7 18.1 71 3.4 SSW 19 22 10 12 1017.9 - 0.0
30/12:00pm 22.7 21.6 17.7 73 3.1 SSW 20 24 11 13 1018.3 1018.3 0.0
30/11:30am 23.3 22.5 18.0 72 3.3 SSW 19 24 10 13 1018.6 - 0.0
30/11:06am 23.0 22.0 17.5 71 3.4 SSW 19 22 10 12 1019.0 - 0.0
30/11:00am 23.4 22.9 17.8 71 3.5 S 17 20 9 11 1019.0 - 0.0
30/10:30am 22.1 21.5 18.9 82 2.0 SSW 20 24 11 13 1019.2 - 0.0
30/10:27am 22.3 21.8 19.1 82 2.0 SSW 20 24 11 13 1019.3 - 0.0
30/10:00am 21.7 22.5 19.0 84 1.7 SSW 13 19 7 10 1019.3 - 0.0
30/09:30am 21.6 22.8 19.1 86 1.6 SSW 11 13 6 7 1019.4 - 0.0
30/09:25am 21.9 23.1 19.0 83 1.8 S 11 15 6 8 1019.3 - 0.0
30/09:10am 22.1 24.1 19.1 83 1.9 SSE 7 13 4 7 1019.1 - 0.0
30/09:00am 22.2 24.9 19.4 84 1.8 SE 4 7 2 4 1019.0 1019.0 0.0
30/08:30am 19.8 22.3 19.0 95 0.5 NE 4 7 2 4 1018.8 - 0.0
30/08:24am 19.5 21.3 18.7 95 0.5 NE 7 9 4 5 1018.8 - 0.0
30/08:00am 18.1 20.3 17.4 96 0.4 NE 2 7 1 4 1018.7 - 0.0
30/07:53am 17.8 19.2 17.3 97 0.3 NE 6 7 3 4 1018.7 - 0.0
30/07:32am 16.8 17.6 16.3 97 0.3 NE 7 7 4 4 1018.4 - 0.0
30/07:30am 16.7 17.7 16.4 98 0.2 NE 6 7 3 4 1018.4 - 0.0
30/07:00am 15.9 16.5 15.7 99 0.1 NE 7 9 4 5 1018.1 - 0.0
30/06:30am 15.9 16.3 15.4 97 0.3 S 7 9 4 5 1017.9 - 0.0
30/06:00am 15.3 15.2 15.0 98 0.2 SSW 9 9 5 5 1018.0 1018.0 0.0
30/05:30am 15.2 16.8 14.8 97 0.2 CALM 0 0 0 0 1017.9 - 0.0
30/05:00am 15.0 16.4 14.5 97 0.3 CALM 0 0 0 0 1018.0 - 0.0
30/04:30am 14.9 15.9 14.4 97 0.3 WSW 2 7 1 4 1018.0 - 0.0
30/04:00am 14.5 15.7 13.8 96 0.4 CALM 0 0 0 0 1018.2 - 0.0
30/03:30am 15.1 16.6 14.6 97 0.3 CALM 0 0 0 0 1018.3 - 0.0
30/03:00am 15.6 17.3 15.3 98 0.2 CALM 0 0 0 0 1018.3 1018.3 0.0
30/02:30am 15.2 16.8 14.8 97 0.2 CALM 0 0 0 0 1018.2 - 0.0
30/02:00am 15.4 17.0 14.9 97 0.3 CALM 0 0 0 0 1018.4 - 0.0
30/01:30am 15.6 16.5 15.1 97 0.3 W 4 6 2 3 1018.6 - 0.0
30/01:00am 16.3 17.0 15.6 96 0.4 W 6 7 3 4 1018.8 - 0.0
30/12:50am 16.7 17.3 15.7 94 0.6 W 7 9 4 5 1018.9 - 0.0
30/12:30am 17.0 18.0 16.3 96 0.4 W 6 7 3 4 1019.1 - 0.0
30/12:00am 17.2 17.7 16.5 96 0.4 W 9 11 5 6 1019.2 1019.2 0.0
 
Date/Time
WST
Temp
°C
App
Temp
°C
Dew
Point
°C
Rel
Hum
%
Delta-T
°C
Wind Press
QNH
hPa
Press
MSL
hPa
Rain since
9am
mm
Dir  Spd
km/h
Gust
km/h
Spd
kts
Gust
kts
29/11:30pm 17.9 18.9 16.9 94 0.6 NNW 7 9 4 5 1019.2 - 0.0
29/11:00pm 17.5 18.6 16.7 95 0.5 NNW 6 7 3 4 1019.4 - 0.0
29/10:30pm 17.1 18.3 15.9 93 0.7 NNW 4 6 2 3 1019.4 - 0.0
29/10:00pm 17.4 18.7 16.2 93 0.7 NNW 4 7 2 4 1019.5 - 0.0
29/09:30pm 18.3 19.9 16.8 91 0.9 WSW 4 6 2 3 1019.6 - 0.0
29/09:00pm 19.9 21.0 17.9 88 1.2 WSW 9 9 5 5 1019.7 1019.7 0.0
29/08:30pm 20.2 21.4 18.3 89 1.2 WSW 9 11 5 6 1019.5 - 0.0
29/08:00pm 20.5 21.7 18.2 87 1.4 W 9 11 5 6 1019.3 - 0.0
29/07:30pm 20.8 21.6 18.1 84 1.7 W 11 13 6 7 1019.1 - 0.0
29/07:00pm 21.0 22.6 19.1 89 1.2 WSW 9 13 5 7 1018.7 - 0.0
29/06:30pm 21.5 22.7 19.1 86 1.5 W 11 17 6 9 1018.2 - 0.0
29/06:00pm 22.3 22.4 19.1 82 2.0 WNW 17 20 9 11 1017.7 1017.7 0.0
29/05:30pm 23.2 22.8 18.8 76 2.8 WNW 19 22 10 12 1017.3 - 0.0
29/05:00pm 24.1 23.3 18.0 68 3.8 NW 19 24 10 13 1017.2 - 0.0
29/04:30pm 23.8 23.3 19.1 75 3.0 W 20 26 11 14 1017.3 - 0.0
29/04:00pm 24.2 24.2 19.0 72 3.3 WSW 17 20 9 11 1017.4 - 0.0
29/03:30pm 24.8 23.4 17.9 65 4.3 W 22 30 12 16 1016.9 - 0.0
29/03:00pm 25.7 24.5 17.4 60 5.2 W 20 26 11 14 1016.8 1016.8 0.0
29/02:30pm 25.3 23.4 16.7 59 5.3 W 22 26 12 14 1016.8 - 0.0
29/02:00pm 26.9 24.6 14.1 45 7.6 WNW 19 22 10 12 1016.6 - 0.0
29/01:30pm 26.9 24.4 12.4 40 8.4 W 17 22 9 12 1016.9 - 0.0
29/01:00pm 28.6 26.4 12.0 35 9.6 W 15 17 8 9 1017.2 - 0.0
29/12:30pm 28.7 26.0 10.5 32 10.3 NW 15 19 8 10 1017.6 - 0.0
29/12:00pm 28.3 25.4 8.0 28 11.0 N 13 19 7 10 1017.8 1017.8 0.0
29/11:30am 27.1 24.3 8.5 31 10.1 NNW 13 17 7 9 1018.5 - 0.0
29/11:00am 27.3 23.9 5.9 25 11.1 N 13 19 7 10 1018.9 - 0.0
29/10:30am 25.8 23.5 5.7 27 10.3 NNW 7 11 4 6 1019.3 - 0.0
29/10:00am 24.9 22.5 6.8 31 9.4 N 9 13 5 7 1019.2 - 0.0
29/09:30am 23.1 20.0 7.3 36 8.2 NNE 13 15 7 8 1018.9 - 0.0
29/09:00am 20.8 17.9 6.5 39 7.2 N 11 13 6 7 1018.9 1018.9 0.0
29/08:30am 19.0 16.5 6.5 44 6.2 N 9 13 5 7 1019.0 - 0.0
29/08:00am 17.1 13.8 6.3 49 5.3 N 13 15 7 8 1018.6 - 0.0
29/07:30am 14.7 11.8 6.6 58 3.9 NNE 11 13 6 7 1018.5 - 0.0
29/07:00am 13.1 10.3 7.1 67 2.9 NNE 11 13 6 7 1018.2 - 0.0
29/06:30am 13.7 11.7 7.3 65 3.1 NE 7 9 4 5 1018.1 - 0.0
29/06:00am 14.5 11.0 5.4 54 4.3 ENE 13 13 7 7 1017.8 1017.8 0.0
29/05:30am 15.1 12.8 5.6 53 4.5 ENE 7 9 4 5 1017.7 - 0.0
29/05:00am 14.9 11.9 6.2 56 4.2 ENE 11 13 6 7 1017.3 - 0.0
29/04:30am 14.9 11.9 5.9 55 4.3 ENE 11 11 6 6 1017.5 - 0.0
29/04:00am 14.8 11.8 5.8 55 4.3 ENE 11 13 6 7 1017.5 - 0.0
29/03:30am 15.0 12.0 6.0 55 4.3 ENE 11 13 6 7 1017.5 - 0.0
29/03:00am 14.6 11.3 6.5 58 3.9 ENE 13 15 7 8 1017.6 1017.6 0.0
29/02:30am 15.2 12.1 5.5 52 4.6 ENE 11 13 6 7 1017.7 - 0.0
29/02:00am 15.7 13.1 5.9 52 4.7 ENE 9 11 5 6 1018.0 - 0.0
29/01:30am 15.7 12.7 5.9 52 4.7 ENE 11 13 6 7 1018.1 - 0.0
29/01:00am 15.3 12.9 6.9 57 4.1 ENE 9 11 5 6 1018.3 - 0.0
29/12:30am 14.9 13.0 7.4 61 3.7 E 7 7 4 4 1018.4 - 0.0
29/12:00am 15.4 13.7 8.2 62 3.6 E 7 9 4 5 1018.7 1018.7 0.0
 
Date/Time
WST
Temp
°C
App
Temp
°C
Dew
Point
°C
Rel
Hum
%
Delta-T
°C
Wind Press
QNH
hPa
Press
MSL
hPa
Rain since
9am
mm
Dir  Spd
km/h
Gust
km/h
Spd
kts
Gust
kts
28/11:30pm 16.4 14.3 6.8 53 4.7 E 7 9 4 5 1018.9 - 0.0
28/11:00pm 16.3 13.7 7.7 56 4.3 E 11 11 6 6 1018.9 - 0.0
28/10:30pm 16.4 14.4 7.1 54 4.6 E 7 9 4 5 1019.0 - 0.0
28/10:00pm 16.4 14.5 7.6 56 4.4 ESE 7 9 4 5 1019.1 - 0.0
28/09:30pm 16.9 14.8 8.2 56 4.4 ESE 9 9 5 5 1019.2 - 0.0
28/09:00pm 17.3 14.9 7.0 50 5.1 ESE 9 9 5 5 1019.4 1019.4 0.0
28/08:30pm 17.8 15.5 7.5 51 5.2 E 9 9 5 5 1019.4 - 0.0
28/08:00pm 18.3 16.6 7.6 49 5.4 SSE 6 7 3 4 1019.2 - 0.0
28/07:30pm 19.1 16.3 7.0 45 6.1 SSE 11 13 6 7 1019.3 - 0.0
28/07:00pm 19.3 16.8 8.0 48 5.8 S 11 13 6 7 1019.1 - 0.0
28/06:30pm 20.1 17.5 7.6 44 6.4 S 11 13 6 7 1018.9 - 0.0
28/06:00pm 20.3 17.5 7.1 42 6.7 S 11 13 6 7 1018.7 1018.7 0.0
28/05:30pm 21.3 17.8 5.3 35 7.9 S 13 17 7 9 1018.3 - 0.0
28/05:00pm 21.2 17.8 7.6 41 7.0 S 15 19 8 10 1018.3 - 0.0
28/04:30pm 21.9 17.4 6.3 36 7.9 S 19 24 10 13 1018.2 - 0.0
28/04:00pm 21.7 17.9 8.9 44 6.8 S 19 24 10 13 1018.1 - 0.0
28/03:30pm 21.8 17.8 9.0 44 6.8 S 20 28 11 15 1018.0 - 0.0
28/03:00pm 22.5 17.9 6.6 35 8.1 SSW 20 24 11 13 1017.9 1017.9 0.0
28/02:30pm 22.3 17.5 5.5 33 8.4 SSW 20 24 11 13 1018.0 - 0.0
28/02:00pm 22.6 17.8 4.4 30 8.9 SSW 19 20 10 11 1018.1 - 0.0
28/01:30pm 22.0 16.7 5.0 33 8.4 S 22 26 12 14 1018.4 - 0.0
28/01:00pm 20.3 14.9 7.9 44 6.4 SSW 26 32 14 17 1018.7 - 0.0
28/12:30pm 20.4 16.1 7.8 44 6.5 SSW 20 26 11 14 1018.8 - 0.0
28/12:00pm 20.3 16.8 7.4 43 6.6 SSW 15 19 8 10 1019.2 1019.2 0.0
28/11:30am 21.1 19.6 10.6 51 5.7 SW 9 13 5 7 1019.3 - 0.0
28/11:00am 23.6 21.1 6.4 33 8.8 N 9 13 5 7 1019.5 - 0.0
28/10:30am 22.0 20.2 5.5 34 8.2 N 4 9 2 5 1019.9 - 0.0
28/10:00am 21.6 19.2 5.2 34 8.1 N 7 11 4 6 1020.0 - 0.0
28/09:30am 20.3 17.4 4.9 36 7.5 NE 9 11 5 6 1019.8 - 0.0
28/09:00am 18.7 16.2 4.7 39 6.7 NNE 7 11 4 6 1020.0 1020.0 0.0
28/08:30am 15.9 13.6 4.8 47 5.2 ENE 6 7 3 4 1019.7 - 0.0
28/08:00am 13.8 10.7 5.7 58 3.8 NE 11 13 6 7 1019.6 - 0.0
28/07:30am 13.1 10.6 6.4 64 3.2 E 9 11 5 6 1019.5 - 0.0
28/07:00am 11.9 9.2 5.4 64 3.0 ENE 9 13 5 7 1019.2 - 0.0
28/06:30am 11.6 8.7 6.3 70 2.5 ENE 11 13 6 7 1019.1 - 0.0
28/06:00am 12.2 10.1 6.5 68 2.7 ESE 7 9 4 5 1019.1 1019.1 0.0
28/05:30am 12.2 10.4 7.2 71 2.4 E 6 7 3 4 1019.0 - 0.0
28/05:00am 12.5 10.8 8.2 75 2.1 ESE 7 9 4 5 1019.0 - 0.0
28/04:30am 12.6 10.4 7.9 73 2.3 ESE 9 11 5 6 1019.1 - 0.0
28/04:00am 12.8 10.6 7.9 72 2.4 SE 9 9 5 5 1019.3 - 0.0
28/03:30am 12.7 10.4 7.6 71 2.5 SE 9 11 5 6 1019.3 - 0.0
28/03:00am 13.0 11.0 7.2 68 2.8 SE 7 9 4 5 1019.3 1019.3 0.0
28/02:30am 12.3 10.0 7.6 73 2.3 SE 9 9 5 5 1019.4 - 0.0
28/02:00am 12.6 10.8 7.0 68 2.7 SSE 6 7 3 4 1019.6 - 0.0
28/01:30am 12.5 10.3 7.8 73 2.3 S 9 9 5 5 1019.7 - 0.0
28/01:00am 12.9 10.5 7.1 68 2.8 SE 9 9 5 5 1020.0 - 0.0
28/12:30am 12.3 10.5 7.8 74 2.2 ESE 7 9 4 5 1019.8 - 0.0
28/12:00am 12.2 10.3 7.4 72 2.3 ESE 7 9 4 5 1019.9 1019.9 0.0
 
Date/Time
WST
Temp
°C
App
Temp
°C
Dew
Point
°C
Rel
Hum
%
Delta-T
°C
Wind Press
QNH
hPa
Press
MSL
hPa
Rain since
9am
mm
Dir  Spd
km/h
Gust
km/h
Spd
kts
Gust
kts
27/11:30pm 13.0 10.3 7.2 68 2.8 SSE 11 13 6 7 1020.1 - 0.0
27/11:00pm 13.5 10.5 7.6 67 2.9 SSE 13 15 7 8 1020.5 - 0.0
27/10:30pm 13.9 11.7 9.4 74 2.3 SSE 11 13 6 7 1020.4 - 0.0
27/10:00pm 15.0 13.0 10.0 72 2.6 SSE 11 11 6 6 1020.4 - 0.0
27/09:30pm 14.9 13.3 10.3 74 2.4 SSE 9 11 5 6 1020.5 - 0.0
27/09:00pm 15.0 12.6 10.2 73 2.5 SSE 13 15 7 8 1020.4 1020.4 0.0
27/08:30pm 15.5 13.6 10.6 72 2.6 SSE 11 13 6 7 1020.3 - 0.0
27/08:00pm 15.8 13.9 10.5 71 2.8 SSE 11 13 6 7 1019.9 - 0.0
27/07:30pm 16.9 14.7 9.2 60 4.0 S 11 13 6 7 1019.8 - 0.0
27/07:00pm 17.9 14.9 9.3 57 4.5 S 15 17 8 9 1019.5 - 0.0
27/06:30pm 18.9 16.2 10.5 58 4.5 S 15 19 8 10 1019.3 - 0.0
27/06:00pm 18.9 16.3 10.7 59 4.4 SSW 15 19 8 10 1018.9 1018.9 0.0
27/05:30pm 20.0 17.4 10.6 54 5.1 SSW 15 17 8 9 1018.6 - 0.0
27/05:00pm 20.9 17.6 8.2 44 6.6 SSW 15 19 8 10 1018.2 - 0.0
27/04:30pm 22.2 17.8 5.0 32 8.5 SSW 17 20 9 11 1018.0 - 0.0
27/04:00pm 22.4 20.0 7.0 37 7.9 SSW 9 13 5 7 1017.5 - 0.0
27/03:30pm 21.2 18.9 8.9 45 6.5 SSW 11 13 6 7 1018.0 - 0.0

Other Formats:

Comma delimited format used in spreadsheet applications
http://www.bom.gov.au/fwo/IDW60801/IDW60801.94300.axf

JavaScript Object Notation format (JSON) in row-major order
http://www.bom.gov.au/fwo/IDW60801/IDW60801.94300.json